Terminal Aerodrome Forecast
Issued by NWS Albany, NY

Home | Current Version | Previous Version | Text Only | Print | Product List | Glossary On
Versions: 1 2 3 4 5 6 7 8 9 10 11 12 13 14 15 16 17 18 19 20
000
FTUS41 KALY 221100
TAFGFL
TAF
KGFL 221138Z 2212/2312 26010G17KT P6SM FEW045
      TEMPO 2212/2215 BKN025
     FM221500 29012G20KT P6SM SCT025 BKN045
     FM222300 28005KT P6SM SCT045
     FM230100 VRB03KT P6SM SKC=

USA.gov is the U.S. government's official web portal to all federal, state and local government web resources and services.